Bienvenidos al Sitio de AASANA BOLIVIA
Aeropuerto: Internaciónal El Alto
HORA UTC 14:00
12°C
Humedad: 53%

Fecha: 20/10/2017


Calma
ESTACIÓN:SLLP
LATITUD|LONGITUD:16-08S|68-10W
HORA UTC:14:00
DESCRIPCIÓN: SLLP 201400Z 24005KT 9999 SCT015 12/03 Q1038 A3065 628.1 P93// HZ S/SW AC/CI HR53 NOSIG= 
Regional La Paz
EstaciónAeropuertoHora UTCDescripción
SLAPApolo14-44S-68-24W
SLCNCharaña17-35S-69-25W
SLRQRurrenabaque14-25S-67-29W SLRQ 201400Z 09006KT 8000 -RA FEW008 BKN015 OVC070 23/23 Q1013 A2993 HR100= 
SLRYReyes14-18S-67-21W SLRY 201300Z 00000KT 7000 -RA BKN005 BKN030 OVC080 23/22 Q1012 A2989 RETS HR98 RWY WET INOP=
SLUYUyuni20-27S-62-52W SLUY 201400Z 30009KT 9999 NSC 13/M12 Q1034 A3054 658.5 FU HR17= 
SLOROruro17-57S-67-04W SLOR 201300Z 34005KT 9999 FEW017 11/05 Q1035 A3057 656.1 HR67 CI=
SLSBSan Borja14-51S-66-44W SLSB 201400Z 17004KT 9999 SCT008 BKN015 OVC070 23/23 Q1012 A2991 RERA HR96 RWY WET INOP= 
SLLPInternaciónal El Alto16-08S-68-10W SLLP 201400Z 24005KT 9999 SCT015 12/03 Q1038 A3065 628.1 P93// HZ S/SW AC/CI HR53 NOSIG= 
Regional Cochabamba
EstaciónAeropuertoHora UTCDescripción
SLAGMonteagudo19-49S-63-58W
SLALAlcantari19-14S-65-09W SLAL 201400Z 24007KT 9999 FEW015 16/08 Q1027 A3033 HR57=
SLBJBermejo22-46S-64-18W SLBJ 201400Z 18005KT 9999 NSC 26/18 Q1009 A2981 HR60 FU= 
SLHIChimore16-58S-65-09W SLHI 191900Z 20005KT 7000 VCTS SCT017 FEW020CB BKN200 30/26 Q1006 A2973 979.5 HR79 CB S/SW/W TS S/SW AC FU= 
SLCBCochabamba17-25S-66-10W SLCB 201400Z 20006KT 9999 FEW033 SCT200 23/06 Q1024 A3024 750.6 HR33 FU NOSIG=
SLTJTarija21-33S-64-42W SLTJ 201400Z 00000KT 9999 NSC 22/10 Q1016 A3000 HR47=
SLPOPotosí19-32S-65-43W SLPO 201400Z 24005KT 9999 NSC 13/01 Q1035 A3056 HR44=
SLVMVillamontes21-15S-63-24W SLVM 192000Z 18010G20KT 9999 FEW025 OVC070 24/15 Q1014 A2995 HR55 FU=
SLYAYacuiba21-57S-63-39W SLYA 201400Z 04012KT 9999 BKN023 23/20 Q1010 A2984 HR83=
Regional Santa Cruz
EstaciónAeropuertoHora UTCDescripción
SLVRInternaciónal Viru Viru17-38S-63-08W SLVR 201400Z 09005KT 9999 FEW012 BKN017 BKN070 22/20 Q1015 A2999 HR89 CI NOSIG=
SLCACamiri20-00S-63-31W SLCA 201400Z 18005KT 9999 NSC 24/17 Q1014 A2994 HR66 FU RWY NML = 
SLASAscención de Guarayos15-55S-63-09W SLAS 201400Z 36006KT 7000 -RA BKN013 OVC070 21/21 Q1016 A3000 HR97 RWY WET OPR=
SLETEl Trompillo17-48S-63-10W SLET 201400Z 06005KT 9999 SCT012 BKN015 BKN070 22/19 Q1014 A2995 HR79 NOSIG= 
SLSISan Ignacio de Velasco16-23S-60-57W SLSI 201400Z 00000KT 8000 BKN020 OVC070 23/21 Q1016 A3000 HR87 FU RWY NML=
SLTISan Matías16-20S-58-24W SLTI 201400Z 00000KT 9999 BKN017 OVC070 26/23 Q1017 A3003 HR85 RWY NML=
SLJESan José de Chiquitos17-49S-60-44W SLJE 201400Z 00000KT 9999 BKN013 OVC070 23/21 Q1016 A3001 HR91 RWY HUM OPR=
SLVGValle Grande18-28S-64-05W SLVG 201400Z 36006KT 9999 BKN015 17/14 Q1023 A3021 HR81 RWY WET OPR=
SLRBRoboré18-19S-59-45W SLRB 201400Z 33012KT 9999 SCT015 BKN070 26/23 Q1014 A2994 HR81 RWY NML=
SLPSPuerto Suárez18-58S-57-49W SLPS 201400Z 09012KT 8000 BKN015 OVC070 26/23 Q1012 A2989 HR81 FU=
SLJVSan Javier16-16S-62-28W SLJV 201400Z 36006KT 4000 -RA BKN010 OVC070 20/20 Q1013 A2991 HR100 RWY HUM OPR=
SLCPConcepción16-08S-62-01W SLCP 201400Z 00000KT 3500 -RA BKN013 OVC070 20/20 Q1017 A3003 HR99 RWY WET OPR=
Regional Beni
EstaciónAeropuertoHora UTCDescripción
SLSMSan Ignacio de Moxos14-57S-65-38W SLSM 201400Z 15004KT 3000 -RA BKN008 FEW023CB OVC070 22/22 Q1012 A2989 HR100 CB N/NW RWY WET INOP= 
SLJOSan Joaquin13-03S-64-39W SLJO 201400Z 16010KT 7000 SCT020 OVC070 25/23 Q1012 A2989 HR90 FU RWY NML=
SLCOCobija11-02S-68-47W SLCO 201400Z 32012KT 9999 FEW010 BKN080 28/25 Q1011 A2987 984.2 HR86 CI= 
SLSASanta Ana de Yacuma13-45S-65-26W SLSA 201400Z 17008KT 3000 -TSRA BKN006 FEW023CB OVC070 21/21 Q1012 A2990 HR100 CB NE/E/SE/NW TS NE=
SLGMGuayaramerín- SLGM 201400Z 36008KT 9999 FEW020 FEW023CB BKN080 31/24 Q1012 A2988 HR68 CB SW=
SLTRTrinidad14-49S-64-54W SLTR 201400Z 36004KT 3000 -TSRA SCT004 FEW023CB OVC070 23/23 Q1013 A2994 995.2 HR100 CB N/NE/W/NW TS NW NOSIG=
SLSRSanta Rosa14-04S-66-47W SLSR 201400Z 12005KT 4000 -RA BKN008 OVC070 22/22 Q1013 A2992 HR100 RWY WET OPR C206=
SLRIRiberalta11-00S-66-04W SLRI 201400Z 00000KT 9999 SCT015 FEW020CB BKN080 BKN200 27/24 Q1012 A2989 HR85 CB NE=
SLBUBaures13-39S-63-42W SLBU 201400Z 18008KT 8000 SCT015 BKN080 27/23 Q1012 A2989 HR79 FU RWY NML=
SLRASan Ramón13-15S-64-36W SLRA 201400Z 14006KT 8000 FEW015 FEW023CB BKN070 26/22 Q1011 A2987 HR82 FU CB SW RWY NML=
SLMGSan Magdalena13-15S-64-36W SLMG 201400Z 16006KT 8000 FEW020 BKN080 26/23 Q1011 A2988 HR81 FU RWY NML=